sensor_id;sensor_type;location;lat;lon;timestamp;pressure;altitude;pressure_sealevel;temperature;humidity
21011;BME280;10663;42.714;23.274;2023-09-19T00:00:06;95151.19;;;20.60;64.47
21011;BME280;10663;42.714;23.274;2023-09-19T00:01:38;95151.69;;;20.53;64.10
21011;BME280;10663;42.714;23.274;2023-09-19T00:03:09;95150.88;;;20.70;64.16
21011;BME280;10663;42.714;23.274;2023-09-19T00:04:40;95148.19;;;20.62;64.30
21011;BME280;10663;42.714;23.274;2023-09-19T00:06:12;95148.50;;;20.51;64.18
21011;BME280;10663;42.714;23.274;2023-09-19T00:07:46;95155.16;;;20.37;63.80
21011;BME280;10663;42.714;23.274;2023-09-19T00:09:18;95144.16;;;20.16;65.17
21011;BME280;10663;42.714;23.274;2023-09-19T00:10:48;95148.16;;;20.27;65.35
21011;BME280;10663;42.714;23.274;2023-09-19T00:12:19;95148.19;;;20.44;65.42
21011;BME280;10663;42.714;23.274;2023-09-19T00:13:50;95154.94;;;20.25;64.90
21011;BME280;10663;42.714;23.274;2023-09-19T00:15:25;95147.66;;;20.16;65.77
21011;BME280;10663;42.714;23.274;2023-09-19T00:16:55;95142.59;;;20.32;65.90
21011;BME280;10663;42.714;23.274;2023-09-19T00:18:26;95141.81;;;20.23;65.83
21011;BME280;10663;42.714;23.274;2023-09-19T00:20:03;95146.06;;;20.15;65.49
21011;BME280;10663;42.714;23.274;2023-09-19T00:21:38;95146.94;;;19.85;65.78
21011;BME280;10663;42.714;23.274;2023-09-19T00:23:08;95142.88;;;20.05;66.24
21011;BME280;10663;42.714;23.274;2023-09-19T00:24:39;95143.94;;;19.87;66.59
21011;BME280;10663;42.714;23.274;2023-09-19T00:26:10;95139.59;;;20.16;66.56
21011;BME280;10663;42.714;23.274;2023-09-19T00:27:43;95139.91;;;20.24;65.78
21011;BME280;10663;42.714;23.274;2023-09-19T00:29:15;95138.22;;;20.36;65.55
21011;BME280;10663;42.714;23.274;2023-09-19T00:30:46;95134.13;;;20.39;66.27
21011;BME280;10663;42.714;23.274;2023-09-19T00:32:25;95137.91;;;20.55;65.65
21011;BME280;10663;42.714;23.274;2023-09-19T00:34:02;95133.94;;;20.61;65.01
21011;BME280;10663;42.714;23.274;2023-09-19T00:35:34;95125.72;;;20.66;65.05
21011;BME280;10663;42.714;23.274;2023-09-19T00:37:05;95128.75;;;20.56;64.10
21011;BME280;10663;42.714;23.274;2023-09-19T00:38:35;95129.16;;;20.32;65.56
21011;BME280;10663;42.714;23.274;2023-09-19T00:40:07;95135.31;;;20.15;65.92
21011;BME280;10663;42.714;23.274;2023-09-19T00:41:46;95135.09;;;19.95;66.42
21011;BME280;10663;42.714;23.274;2023-09-19T00:43:16;95142.25;;;19.99;65.63
21011;BME280;10663;42.714;23.274;2023-09-19T00:44:47;95140.91;;;19.79;66.72
21011;BME280;10663;42.714;23.274;2023-09-19T00:46:21;95147.66;;;19.68;66.71
21011;BME280;10663;42.714;23.274;2023-09-19T00:47:52;95143.94;;;19.87;67.54
21011;BME280;10663;42.714;23.274;2023-09-19T00:49:22;95137.38;;;20.10;66.72
21011;BME280;10663;42.714;23.274;2023-09-19T00:50:53;95139.47;;;20.30;66.69
21011;BME280;10663;42.714;23.274;2023-09-19T00:52:25;95134.03;;;20.22;65.01
21011;BME280;10663;42.714;23.274;2023-09-19T00:53:57;95140.31;;;19.91;66.53
21011;BME280;10663;42.714;23.274;2023-09-19T00:55:29;95137.19;;;20.15;66.36
21011;BME280;10663;42.714;23.274;2023-09-19T00:57:00;95139.91;;;20.24;65.76
21011;BME280;10663;42.714;23.274;2023-09-19T00:58:32;95140.44;;;20.43;65.87
21011;BME280;10663;42.714;23.274;2023-09-19T01:00:08;95136.34;;;20.54;65.37
21011;BME280;10663;42.714;23.274;2023-09-19T01:01:45;95131.44;;;20.39;65.57
21011;BME280;10663;42.714;23.274;2023-09-19T01:03:17;95129.31;;;20.27;65.48
21011;BME280;10663;42.714;23.274;2023-09-19T01:04:48;95125.03;;;20.17;66.10
21011;BME280;10663;42.714;23.274;2023-09-19T01:06:19;95127.72;;;20.17;65.95
21011;BME280;10663;42.714;23.274;2023-09-19T01:07:51;95127.66;;;19.83;66.41
21011;BME280;10663;42.714;23.274;2023-09-19T01:09:23;95129.41;;;19.96;67.06
21011;BME280;10663;42.714;23.274;2023-09-19T01:11:01;95138.13;;;19.54;66.07
21011;BME280;10663;42.714;23.274;2023-09-19T01:12:42;95138.75;;;19.51;68.69
21011;BME280;10663;42.714;23.274;2023-09-19T01:14:20;95139.44;;;19.65;67.97
21011;BME280;10663;42.714;23.274;2023-09-19T01:15:55;95141.13;;;19.92;67.44
21011;BME280;10663;42.714;23.274;2023-09-19T01:17:34;95140.50;;;20.03;67.06
21011;BME280;10663;42.714;23.274;2023-09-19T01:20:57;95152.41;;;20.11;66.68
21011;BME280;10663;42.714;23.274;2023-09-19T01:31:00;95143.59;;;19.79;67.90
21011;BME280;10663;42.714;23.274;2023-09-19T01:32:33;95141.00;;;19.57;67.59
21011;BME280;10663;42.714;23.274;2023-09-19T01:34:04;95141.78;;;19.58;67.86
21011;BME280;10663;42.714;23.274;2023-09-19T01:35:35;95141.44;;;19.51;66.56
21011;BME280;10663;42.714;23.274;2023-09-19T01:37:09;95141.88;;;19.75;68.19
21011;BME280;10663;42.714;23.274;2023-09-19T01:38:40;95142.78;;;19.70;68.02
21011;BME280;10663;42.714;23.274;2023-09-19T01:40:12;95150.16;;;20.04;67.20
21011;BME280;10663;42.714;23.274;2023-09-19T01:41:54;95149.81;;;19.97;67.12
21011;BME280;10663;42.714;23.274;2023-09-19T01:43:27;95145.69;;;19.91;66.70
21011;BME280;10663;42.714;23.274;2023-09-19T01:45:03;95135.75;;;20.00;66.64
21011;BME280;10663;42.714;23.274;2023-09-19T01:46:38;95129.44;;;20.13;66.66
21011;BME280;10663;42.714;23.274;2023-09-19T01:49:55;95135.47;;;20.19;65.56
21011;BME280;10663;42.714;23.274;2023-09-19T01:53:04;95145.78;;;19.69;66.38
21011;BME280;10663;42.714;23.274;2023-09-19T01:54:58;95154.47;;;19.66;66.51
21011;BME280;10663;42.714;23.274;2023-09-19T01:56:37;95148.16;;;19.09;68.22
21011;BME280;10663;42.714;23.274;2023-09-19T01:58:27;95143.53;;;19.62;68.12
21011;BME280;10663;42.714;23.274;2023-09-19T02:01:44;95138.75;;;19.99;66.10
21011;BME280;10663;42.714;23.274;2023-09-19T02:03:15;95141.28;;;20.04;65.86
21011;BME280;10663;42.714;23.274;2023-09-19T02:04:47;95136.34;;;19.89;65.92
21011;BME280;10663;42.714;23.274;2023-09-19T02:06:18;95143.00;;;19.91;65.75
21011;BME280;10663;42.714;23.274;2023-09-19T02:07:49;95144.31;;;20.02;66.01
21011;BME280;10663;42.714;23.274;2023-09-19T02:09:21;95139.84;;;19.98;65.16
21011;BME280;10663;42.714;23.274;2023-09-19T02:10:52;95138.75;;;19.90;65.39
21011;BME280;10663;42.714;23.274;2023-09-19T02:12:24;95146.81;;;19.99;65.76
21011;BME280;10663;42.714;23.274;2023-09-19T02:13:54;95142.19;;;19.82;65.62
21011;BME280;10663;42.714;23.274;2023-09-19T02:15:26;95137.91;;;19.81;66.18
21011;BME280;10663;42.714;23.274;2023-09-19T02:16:56;95143.19;;;20.03;65.37
21011;BME280;10663;42.714;23.274;2023-09-19T02:18:27;95127.22;;;19.98;65.18
21011;BME280;10663;42.714;23.274;2023-09-19T02:19:58;95129.13;;;20.06;65.26
21011;BME280;10663;42.714;23.274;2023-09-19T02:21:31;95128.94;;;19.94;65.05
21011;BME280;10663;42.714;23.274;2023-09-19T02:23:02;95131.81;;;19.58;65.02
21011;BME280;10663;42.714;23.274;2023-09-19T02:24:33;95129.25;;;19.84;66.13
21011;BME280;10663;42.714;23.274;2023-09-19T02:26:05;95125.59;;;19.89;65.59
21011;BME280;10663;42.714;23.274;2023-09-19T02:27:37;95127.19;;;19.90;65.18
21011;BME280;10663;42.714;23.274;2023-09-19T02:29:08;95130.06;;;19.54;64.59
21011;BME280;10663;42.714;23.274;2023-09-19T02:30:41;95128.63;;;18.94;67.97
21011;BME280;10663;42.714;23.274;2023-09-19T02:32:12;95127.16;;;19.11;68.04
21011;BME280;10663;42.714;23.274;2023-09-19T02:33:42;95133.53;;;19.23;68.04
21011;BME280;10663;42.714;23.274;2023-09-19T02:35:13;95128.91;;;19.46;67.64
21011;BME280;10663;42.714;23.274;2023-09-19T02:36:45;95121.44;;;19.65;66.61
21011;BME280;10663;42.714;23.274;2023-09-19T02:38:16;95116.84;;;19.66;66.32
21011;BME280;10663;42.714;23.274;2023-09-19T02:39:52;95112.72;;;19.68;66.44
21011;BME280;10663;42.714;23.274;2023-09-19T02:41:22;95115.94;;;19.79;65.90
21011;BME280;10663;42.714;23.274;2023-09-19T02:42:54;95111.06;;;19.90;66.37
21011;BME280;10663;42.714;23.274;2023-09-19T02:44:27;95114.72;;;19.94;65.74
21011;BME280;10663;42.714;23.274;2023-09-19T02:45:58;95108.81;;;19.74;65.98
21011;BME280;10663;42.714;23.274;2023-09-19T02:47:28;95105.16;;;19.70;66.32
21011;BME280;10663;42.714;23.274;2023-09-19T02:49:01;95104.84;;;19.72;65.96
21011;BME280;10663;42.714;23.274;2023-09-19T02:50:32;95106.66;;;19.94;66.12
21011;BME280;10663;42.714;23.274;2023-09-19T02:52:04;95102.19;;;19.89;65.82
21011;BME280;10663;42.714;23.274;2023-09-19T02:53:35;95104.09;;;19.89;66.02
21011;BME280;10663;42.714;23.274;2023-09-19T02:55:06;95103.59;;;19.78;66.01
21011;BME280;10663;42.714;23.274;2023-09-19T02:56:39;95100.81;;;20.00;65.80
21011;BME280;10663;42.714;23.274;2023-09-19T02:58:11;95103.50;;;20.00;65.67
21011;BME280;10663;42.714;23.274;2023-09-19T02:59:42;95097.81;;;19.93;65.66
21011;BME280;10663;42.714;23.274;2023-09-19T03:01:14;95099.19;;;19.82;65.66
21011;BME280;10663;42.714;23.274;2023-09-19T03:02:45;95097.13;;;19.79;66.26
21011;BME280;10663;42.714;23.274;2023-09-19T03:04:17;95103.13;;;19.36;66.14
21011;BME280;10663;42.714;23.274;2023-09-19T03:05:52;95095.47;;;19.52;66.55
21011;BME280;10663;42.714;23.274;2023-09-19T03:07:23;95090.63;;;19.40;67.03
21011;BME280;10663;42.714;23.274;2023-09-19T03:08:55;95094.22;;;19.58;66.68
21011;BME280;10663;42.714;23.274;2023-09-19T03:10:27;95094.53;;;19.57;66.79
21011;BME280;10663;42.714;23.274;2023-09-19T03:11:59;95091.91;;;19.74;66.19
21011;BME280;10663;42.714;23.274;2023-09-19T03:13:31;95087.31;;;19.74;65.94
21011;BME280;10663;42.714;23.274;2023-09-19T03:15:03;95088.44;;;19.82;65.83
21011;BME280;10663;42.714;23.274;2023-09-19T03:16:35;95086.69;;;19.77;65.64
21011;BME280;10663;42.714;23.274;2023-09-19T03:18:08;95085.09;;;19.76;66.54
21011;BME280;10663;42.714;23.274;2023-09-19T03:19:38;95090.34;;;19.82;65.61
21011;BME280;10663;42.714;23.274;2023-09-19T03:21:10;95080.88;;;19.84;65.18
21011;BME280;10663;42.714;23.274;2023-09-19T03:22:40;95090.41;;;19.59;66.45
21011;BME280;10663;42.714;23.274;2023-09-19T03:24:11;95089.31;;;19.60;66.66
21011;BME280;10663;42.714;23.274;2023-09-19T03:25:43;95088.38;;;19.56;66.22
21011;BME280;10663;42.714;23.274;2023-09-19T03:27:14;95086.00;;;19.55;66.06
21011;BME280;10663;42.714;23.274;2023-09-19T03:28:46;95091.75;;;19.39;66.13
21011;BME280;10663;42.714;23.274;2023-09-19T03:30:17;95090.13;;;19.69;65.69
21011;BME280;10663;42.714;23.274;2023-09-19T03:31:49;95089.34;;;19.69;65.64
21011;BME280;10663;42.714;23.274;2023-09-19T03:33:20;95093.72;;;19.48;65.31
21011;BME280;10663;42.714;23.274;2023-09-19T03:34:51;95098.41;;;18.80;67.26
21011;BME280;10663;42.714;23.274;2023-09-19T03:36:21;95104.28;;;19.22;67.14
21011;BME280;10663;42.714;23.274;2023-09-19T03:37:53;95106.03;;;18.64;68.26
21011;BME280;10663;42.714;23.274;2023-09-19T03:39:24;95112.84;;;18.93;68.25
21011;BME280;10663;42.714;23.274;2023-09-19T03:40:54;95104.53;;;18.36;69.22
21011;BME280;10663;42.714;23.274;2023-09-19T03:42:25;95114.25;;;17.96;69.27
21011;BME280;10663;42.714;23.274;2023-09-19T03:43:57;95122.47;;;17.58;70.26
21011;BME280;10663;42.714;23.274;2023-09-19T03:45:29;95118.91;;;17.36;71.21
21011;BME280;10663;42.714;23.274;2023-09-19T03:46:59;95117.91;;;17.32;73.58
21011;BME280;10663;42.714;23.274;2023-09-19T03:48:31;95126.19;;;17.63;72.83
21011;BME280;10663;42.714;23.274;2023-09-19T03:50:03;95115.53;;;17.85;71.94
21011;BME280;10663;42.714;23.274;2023-09-19T03:51:34;95121.34;;;17.65;71.00
21011;BME280;10663;42.714;23.274;2023-09-19T03:53:05;95124.66;;;17.98;71.96
21011;BME280;10663;42.714;23.274;2023-09-19T03:54:37;95115.81;;;18.11;72.23
21011;BME280;10663;42.714;23.274;2023-09-19T03:56:10;95117.34;;;18.25;70.33
21011;BME280;10663;42.714;23.274;2023-09-19T03:57:41;95112.44;;;18.05;70.49
21011;BME280;10663;42.714;23.274;2023-09-19T03:59:13;95116.25;;;17.90;71.90
21011;BME280;10663;42.714;23.274;2023-09-19T04:00:44;95119.50;;;17.87;72.68
21011;BME280;10663;42.714;23.274;2023-09-19T04:02:15;95118.22;;;17.99;72.05
21011;BME280;10663;42.714;23.274;2023-09-19T04:03:54;95121.06;;;18.16;71.06
21011;BME280;10663;42.714;23.274;2023-09-19T04:05:24;95127.25;;;18.03;70.70
21011;BME280;10663;42.714;23.274;2023-09-19T04:06:55;95138.94;;;17.52;71.29
21011;BME280;10663;42.714;23.274;2023-09-19T04:08:26;95141.84;;;17.55;71.85
21011;BME280;10663;42.714;23.274;2023-09-19T04:09:56;95140.19;;;17.13;72.87
21011;BME280;10663;42.714;23.274;2023-09-19T04:11:27;95146.94;;;16.78;74.08
21011;BME280;10663;42.714;23.274;2023-09-19T04:12:58;95149.03;;;16.25;76.17
21011;BME280;10663;42.714;23.274;2023-09-19T04:14:28;95146.66;;;16.24;76.85
21011;BME280;10663;42.714;23.274;2023-09-19T04:15:59;95142.75;;;16.16;76.86
21011;BME280;10663;42.714;23.274;2023-09-19T04:17:30;95129.31;;;16.40;78.52
21011;BME280;10663;42.714;23.274;2023-09-19T04:19:03;95133.38;;;17.35;75.48
21011;BME280;10663;42.714;23.274;2023-09-19T04:20:34;95129.66;;;17.63;73.52
21011;BME280;10663;42.714;23.274;2023-09-19T04:22:05;95131.63;;;17.99;72.26
21011;BME280;10663;42.714;23.274;2023-09-19T04:23:35;95122.16;;;18.15;71.28
21011;BME280;10663;42.714;23.274;2023-09-19T04:25:07;95122.34;;;18.18;70.65
21011;BME280;10663;42.714;23.274;2023-09-19T04:26:38;95115.97;;;18.28;70.35
21011;BME280;10663;42.714;23.274;2023-09-19T04:28:09;95125.84;;;18.41;69.55
21011;BME280;10663;42.714;23.274;2023-09-19T04:29:41;95122.38;;;18.41;69.58
21011;BME280;10663;42.714;23.274;2023-09-19T04:31:12;95125.59;;;18.29;68.96
21011;BME280;10663;42.714;23.274;2023-09-19T04:32:44;95122.91;;;18.29;69.38
21011;BME280;10663;42.714;23.274;2023-09-19T04:34:15;95123.50;;;18.26;69.50
21011;BME280;10663;42.714;23.274;2023-09-19T04:35:48;95116.66;;;18.56;69.66
21011;BME280;10663;42.714;23.274;2023-09-19T04:37:19;95118.56;;;18.78;68.38
21011;BME280;10663;42.714;23.274;2023-09-19T04:38:50;95119.63;;;18.90;67.62
21011;BME280;10663;42.714;23.274;2023-09-19T04:40:20;95117.03;;;19.08;67.83
21011;BME280;10663;42.714;23.274;2023-09-19T04:41:51;95119.53;;;19.04;67.13
21011;BME280;10663;42.714;23.274;2023-09-19T04:43:22;95114.84;;;19.10;66.69
21011;BME280;10663;42.714;23.274;2023-09-19T04:44:53;95114.56;;;19.20;66.43
21011;BME280;10663;42.714;23.274;2023-09-19T04:46:23;95111.91;;;19.20;66.06
21011;BME280;10663;42.714;23.274;2023-09-19T04:47:54;95110.72;;;19.12;66.19
21011;BME280;10663;42.714;23.274;2023-09-19T04:49:26;95112.72;;;18.98;66.17
21011;BME280;10663;42.714;23.274;2023-09-19T04:50:57;95104.91;;;19.10;66.65
21011;BME280;10663;42.714;23.274;2023-09-19T04:52:29;95106.94;;;19.44;66.83
21011;BME280;10663;42.714;23.274;2023-09-19T04:54:01;95109.22;;;19.20;66.33
21011;BME280;10663;42.714;23.274;2023-09-19T04:55:33;95107.66;;;19.27;66.33
21011;BME280;10663;42.714;23.274;2023-09-19T04:57:03;95106.41;;;19.33;65.95
21011;BME280;10663;42.714;23.274;2023-09-19T04:58:37;95109.06;;;19.25;66.11
21011;BME280;10663;42.714;23.274;2023-09-19T05:00:08;95106.09;;;19.35;66.51
21011;BME280;10663;42.714;23.274;2023-09-19T05:01:42;95111.34;;;19.40;66.42
21011;BME280;10663;42.714;23.274;2023-09-19T05:03:13;95106.75;;;19.40;66.58
21011;BME280;10663;42.714;23.274;2023-09-19T05:04:44;95109.59;;;19.35;67.56
21011;BME280;10663;42.714;23.274;2023-09-19T05:06:15;95115.22;;;19.48;70.24
21011;BME280;10663;42.714;23.274;2023-09-19T05:07:45;95108.63;;;19.62;67.68
21011;BME280;10663;42.714;23.274;2023-09-19T05:09:17;95106.47;;;19.82;67.44
21011;BME280;10663;42.714;23.274;2023-09-19T05:10:50;95104.84;;;19.72;67.04
21011;BME280;10663;42.714;23.274;2023-09-19T05:12:20;95106.47;;;19.90;66.49
21011;BME280;10663;42.714;23.274;2023-09-19T05:13:52;95108.09;;;20.00;66.28
21011;BME280;10663;42.714;23.274;2023-09-19T05:15:25;95107.59;;;19.98;66.05
21011;BME280;10663;42.714;23.274;2023-09-19T05:16:56;95111.56;;;20.09;66.26
21011;BME280;10663;42.714;23.274;2023-09-19T05:18:27;95104.44;;;20.04;66.37
21011;BME280;10663;42.714;23.274;2023-09-19T05:19:57;95103.03;;;20.33;65.44
21011;BME280;10663;42.714;23.274;2023-09-19T05:21:28;95104.94;;;20.15;65.65
21011;BME280;10663;42.714;23.274;2023-09-19T05:23:02;95110.97;;;20.21;65.38
21011;BME280;10663;42.714;23.274;2023-09-19T05:24:33;95104.28;;;20.01;65.67
21011;BME280;10663;42.714;23.274;2023-09-19T05:26:04;95105.91;;;20.19;65.35
21011;BME280;10663;42.714;23.274;2023-09-19T05:27:35;95102.22;;;19.98;65.71
21011;BME280;10663;42.714;23.274;2023-09-19T05:29:06;95103.53;;;20.17;65.14
21011;BME280;10663;42.714;23.274;2023-09-19T05:30:38;95104.84;;;20.37;65.43
21011;BME280;10663;42.714;23.274;2023-09-19T05:32:10;95098.47;;;20.76;64.93
21011;BME280;10663;42.714;23.274;2023-09-19T05:33:41;95102.34;;;21.13;64.49
21011;BME280;10663;42.714;23.274;2023-09-19T05:35:12;95093.81;;;21.28;64.01
21011;BME280;10663;42.714;23.274;2023-09-19T05:36:43;95094.28;;;21.22;63.79
21011;BME280;10663;42.714;23.274;2023-09-19T05:38:14;95086.16;;;21.31;64.50
21011;BME280;10663;42.714;23.274;2023-09-19T05:39:49;95090.03;;;20.95;63.22
21011;BME280;10663;42.714;23.274;2023-09-19T05:41:20;95088.66;;;20.80;64.09
21011;BME280;10663;42.714;23.274;2023-09-19T05:42:51;95088.13;;;20.96;64.49
21011;BME280;10663;42.714;23.274;2023-09-19T05:44:22;95093.09;;;21.40;65.67
21011;BME280;10663;42.714;23.274;2023-09-19T05:45:53;95089.81;;;21.35;64.43
21011;BME280;10663;42.714;23.274;2023-09-19T05:47:26;95086.72;;;21.53;64.39
21011;BME280;10663;42.714;23.274;2023-09-19T05:48:57;95091.19;;;21.41;63.17
21011;BME280;10663;42.714;23.274;2023-09-19T05:50:28;95085.59;;;21.54;64.56
21011;BME280;10663;42.714;23.274;2023-09-19T05:51:58;95092.94;;;21.45;63.24
21011;BME280;10663;42.714;23.274;2023-09-19T05:53:30;95092.84;;;21.16;62.91
21011;BME280;10663;42.714;23.274;2023-09-19T05:55:01;95090.44;;;19.68;66.05
21011;BME280;10663;42.714;23.274;2023-09-19T05:56:32;95093.88;;;19.51;66.90
21011;BME280;10663;42.714;23.274;2023-09-19T05:58:02;95097.66;;;19.50;67.67
21011;BME280;10663;42.714;23.274;2023-09-19T05:59:34;95090.34;;;19.82;67.21
21011;BME280;10663;42.714;23.274;2023-09-19T06:01:04;95087.06;;;20.02;67.49
21011;BME280;10663;42.714;23.274;2023-09-19T06:02:35;95079.44;;;20.04;65.39
21011;BME280;10663;42.714;23.274;2023-09-19T06:04:06;95079.78;;;20.11;66.67
21011;BME280;10663;42.714;23.274;2023-09-19T06:05:37;95077.13;;;20.71;64.85
21011;BME280;10663;42.714;23.274;2023-09-19T06:07:11;95075.03;;;20.25;65.38
21011;BME280;10663;42.714;23.274;2023-09-19T06:08:42;95071.03;;;21.00;64.44
21011;BME280;10663;42.714;23.274;2023-09-19T06:10:16;95080.31;;;21.67;62.32
21011;BME280;10663;42.714;23.274;2023-09-19T06:11:47;95081.28;;;21.62;61.51
21011;BME280;10663;42.714;23.274;2023-09-19T06:13:18;95074.28;;;21.70;61.93
21011;BME280;10663;42.714;23.274;2023-09-19T06:14:50;95074.16;;;21.87;60.63
21011;BME280;10663;42.714;23.274;2023-09-19T06:16:20;95076.38;;;21.93;61.30
21011;BME280;10663;42.714;23.274;2023-09-19T06:17:52;95074.19;;;22.37;61.07
21011;BME280;10663;42.714;23.274;2023-09-19T06:19:26;95059.09;;;22.57;61.13
21011;BME280;10663;42.714;23.274;2023-09-19T06:20:56;95055.53;;;22.44;58.97
21011;BME280;10663;42.714;23.274;2023-09-19T06:22:27;95063.72;;;22.35;59.50
21011;BME280;10663;42.714;23.274;2023-09-19T06:23:58;95065.56;;;22.02;59.59
21011;BME280;10663;42.714;23.274;2023-09-19T06:25:29;95065.00;;;21.20;60.63
21011;BME280;10663;42.714;23.274;2023-09-19T06:27:00;95069.81;;;20.80;62.61
21011;BME280;10663;42.714;23.274;2023-09-19T06:28:31;95064.59;;;20.58;62.79
21011;BME280;10663;42.714;23.274;2023-09-19T06:30:03;95061.91;;;21.39;61.72
21011;BME280;10663;42.714;23.274;2023-09-19T06:31:34;95065.19;;;21.45;61.04
21011;BME280;10663;42.714;23.274;2023-09-19T06:33:05;95061.81;;;21.86;60.67
21011;BME280;10663;42.714;23.274;2023-09-19T06:34:37;95068.44;;;21.30;61.19
21011;BME280;10663;42.714;23.274;2023-09-19T06:36:09;95070.56;;;21.53;62.27
21011;BME280;10663;42.714;23.274;2023-09-19T06:37:40;95064.88;;;21.46;60.16
21011;BME280;10663;42.714;23.274;2023-09-19T06:39:11;95068.97;;;20.97;61.81
21011;BME280;10663;42.714;23.274;2023-09-19T06:40:42;95063.69;;;21.94;60.66
21011;BME280;10663;42.714;23.274;2023-09-19T06:42:13;95060.47;;;21.71;61.01
21011;BME280;10663;42.714;23.274;2023-09-19T06:43:44;95070.00;;;21.39;61.34
21011;BME280;10663;42.714;23.274;2023-09-19T06:45:15;95075.53;;;20.70;62.15
21011;BME280;10663;42.714;23.274;2023-09-19T06:46:49;95071.81;;;21.56;61.25
21011;BME280;10663;42.714;23.274;2023-09-19T06:48:21;95058.97;;;22.12;61.50
21011;BME280;10663;42.714;23.274;2023-09-19T06:49:52;95060.88;;;22.53;60.07
21011;BME280;10663;42.714;23.274;2023-09-19T06:51:23;95062.09;;;23.09;59.61
21011;BME280;10663;42.714;23.274;2023-09-19T06:52:55;95065.63;;;23.34;58.22
21011;BME280;10663;42.714;23.274;2023-09-19T06:54:27;95065.84;;;23.41;57.14
21011;BME280;10663;42.714;23.274;2023-09-19T06:56:02;95071.03;;;22.89;57.77
21011;BME280;10663;42.714;23.274;2023-09-19T06:57:32;95067.75;;;23.28;57.83
21011;BME280;10663;42.714;23.274;2023-09-19T06:59:03;95073.94;;;23.17;56.93
21011;BME280;10663;42.714;23.274;2023-09-19T07:00:36;95075.72;;;23.12;56.22
21011;BME280;10663;42.714;23.274;2023-09-19T07:02:07;95075.63;;;22.55;56.45
21011;BME280;10663;42.714;23.274;2023-09-19T07:03:38;95079.63;;;21.40;59.01
21011;BME280;10663;42.714;23.274;2023-09-19T07:05:10;95083.88;;;21.50;59.60
21011;BME280;10663;42.714;23.274;2023-09-19T07:06:42;95078.28;;;21.63;60.06
21011;BME280;10663;42.714;23.274;2023-09-19T07:08:13;95080.97;;;21.93;59.23
21011;BME280;10663;42.714;23.274;2023-09-19T07:09:43;95081.09;;;21.38;59.58
21011;BME280;10663;42.714;23.274;2023-09-19T07:11:14;95080.47;;;21.99;59.80
21011;BME280;10663;42.714;23.274;2023-09-19T07:12:46;95074.69;;;22.10;58.45
21011;BME280;10663;42.714;23.274;2023-09-19T07:14:16;95076.88;;;21.57;59.07
21011;BME280;10663;42.714;23.274;2023-09-19T07:15:47;95081.09;;;21.67;60.15
21011;BME280;10663;42.714;23.274;2023-09-19T07:17:18;95090.63;;;21.26;60.63
21011;BME280;10663;42.714;23.274;2023-09-19T07:18:49;95081.81;;;21.85;59.23
21011;BME280;10663;42.714;23.274;2023-09-19T07:20:20;95080.47;;;21.99;59.26
21011;BME280;10663;42.714;23.274;2023-09-19T07:21:51;95076.16;;;22.28;58.77
21011;BME280;10663;42.714;23.274;2023-09-19T07:23:22;95071.41;;;22.46;58.23
21011;BME280;10663;42.714;23.274;2023-09-19T07:24:54;95076.94;;;22.08;58.17
21011;BME280;10663;42.714;23.274;2023-09-19T07:26:25;95079.50;;;22.46;58.51
21011;BME280;10663;42.714;23.274;2023-09-19T07:27:56;95082.94;;;22.55;58.81
21011;BME280;10663;42.714;23.274;2023-09-19T07:29:30;95079.56;;;22.58;57.66
21011;BME280;10663;42.714;23.274;2023-09-19T07:31:03;95082.31;;;22.08;58.86
21011;BME280;10663;42.714;23.274;2023-09-19T07:32:35;95090.28;;;22.25;58.08
21011;BME280;10663;42.714;23.274;2023-09-19T07:34:09;95089.22;;;22.59;56.53
21011;BME280;10663;42.714;23.274;2023-09-19T07:35:40;95085.50;;;22.30;57.95
21011;BME280;10663;42.714;23.274;2023-09-19T07:37:16;95079.38;;;22.42;56.93
21011;BME280;10663;42.714;23.274;2023-09-19T07:38:47;95085.78;;;22.37;56.38
21011;BME280;10663;42.714;23.274;2023-09-19T07:40:18;95088.81;;;21.77;57.99
21011;BME280;10663;42.714;23.274;2023-09-19T07:41:50;95094.69;;;22.09;57.97
21011;BME280;10663;42.714;23.274;2023-09-19T07:43:21;95089.22;;;21.58;59.10
21011;BME280;10663;42.714;23.274;2023-09-19T07:44:52;95088.03;;;22.06;59.10
21011;BME280;10663;42.714;23.274;2023-09-19T07:46:24;95080.84;;;22.39;57.66
21011;BME280;10663;42.714;23.274;2023-09-19T07:47:56;95088.84;;;22.27;57.53
21011;BME280;10663;42.714;23.274;2023-09-19T07:49:27;95084.38;;;22.11;57.33
21011;BME280;10663;42.714;23.274;2023-09-19T07:51:16;95086.78;;;21.36;60.04
21011;BME280;10663;42.714;23.274;2023-09-19T07:52:47;95082.44;;;21.52;59.04
21011;BME280;10663;42.714;23.274;2023-09-19T07:54:21;95096.16;;;21.13;60.45
21011;BME280;10663;42.714;23.274;2023-09-19T07:55:51;95083.78;;;21.76;59.58
21011;BME280;10663;42.714;23.274;2023-09-19T07:57:25;95089.63;;;22.07;58.92
21011;BME280;10663;42.714;23.274;2023-09-19T07:58:56;95084.50;;;22.35;57.94
21011;BME280;10663;42.714;23.274;2023-09-19T08:00:29;95075.28;;;22.57;57.50
21011;BME280;10663;42.714;23.274;2023-09-19T08:02:00;95079.19;;;22.47;57.55
21011;BME280;10663;42.714;23.274;2023-09-19T08:03:31;95072.50;;;22.65;57.01
21011;BME280;10663;42.714;23.274;2023-09-19T08:05:02;95070.34;;;22.80;57.22
21011;BME280;10663;42.714;23.274;2023-09-19T08:06:36;95070.06;;;22.93;56.38
21011;BME280;10663;42.714;23.274;2023-09-19T08:08:09;95065.53;;;22.97;56.14
21011;BME280;10663;42.714;23.274;2023-09-19T08:09:41;95062.22;;;23.12;55.60
21011;BME280;10663;42.714;23.274;2023-09-19T08:11:12;95065.53;;;22.85;56.07
21011;BME280;10663;42.714;23.274;2023-09-19T08:12:43;95069.03;;;22.98;55.92
21011;BME280;10663;42.714;23.274;2023-09-19T08:14:17;95064.00;;;23.08;55.16
21011;BME280;10663;42.714;23.274;2023-09-19T08:15:48;95056.38;;;22.77;56.01